createdAt,value
2018-12-13T00:00:37.336Z,82.10
2018-12-13T00:03:06.376Z,82.59
2018-12-13T00:05:35.262Z,83.08
2018-12-13T00:08:04.163Z,82.93
2018-12-13T00:10:33.079Z,82.92
2018-12-13T00:13:01.979Z,82.61
2018-12-13T00:15:33.424Z,82.53
2018-12-13T00:18:02.321Z,82.99
2018-12-13T00:20:31.253Z,82.94
2018-12-13T00:23:00.148Z,82.98
2018-12-13T00:25:29.039Z,82.72
2018-12-13T00:27:59.668Z,82.56
2018-12-13T00:30:28.488Z,83.23
2018-12-13T00:32:57.356Z,82.89
2018-12-13T00:35:26.260Z,82.76
2018-12-13T00:37:55.244Z,82.86
2018-12-13T00:40:24.154Z,83.12
2018-12-13T00:42:53.056Z,83.04
2018-12-13T00:45:21.985Z,82.88
2018-12-13T00:47:50.880Z,82.88
2018-12-13T00:50:19.800Z,82.88
2018-12-13T00:52:48.742Z,82.85
2018-12-13T00:55:17.660Z,82.90
2018-12-13T00:57:46.549Z,82.84
2018-12-13T01:00:15.470Z,82.57
2018-12-13T01:02:44.361Z,82.62
2018-12-13T01:05:13.273Z,82.80
2018-12-13T01:07:42.226Z,82.84
2018-12-13T01:10:11.108Z,81.97
2018-12-13T01:12:40.054Z,82.76
2018-12-13T01:15:08.988Z,82.70
2018-12-13T01:17:37.938Z,81.58
2018-12-13T01:20:06.907Z,82.56
2018-12-13T01:22:35.810Z,82.54
2018-12-13T01:25:04.757Z,82.75
2018-12-13T01:27:33.647Z,82.33
2018-12-13T01:30:02.538Z,82.55
2018-12-13T01:32:31.450Z,83.01
2018-12-13T01:35:00.349Z,82.83
2018-12-13T01:37:29.232Z,82.71
2018-12-13T01:39:58.152Z,82.74
2018-12-13T01:42:27.071Z,82.95
2018-12-13T01:44:55.987Z,82.94
2018-12-13T01:47:24.882Z,82.38
2018-12-13T01:49:53.815Z,82.11
2018-12-13T01:52:22.692Z,81.93
2018-12-13T01:54:51.599Z,82.17
2018-12-13T01:57:20.489Z,81.97
2018-12-13T01:59:49.461Z,81.74
2018-12-13T02:02:18.290Z,81.56
2018-12-13T02:04:47.228Z,81.42
2018-12-13T02:07:16.134Z,80.28
2018-12-13T02:09:45.044Z,80.80
2018-12-13T02:12:13.921Z,80.62
2018-12-13T02:14:42.846Z,80.73
2018-12-13T02:17:11.749Z,80.50
2018-12-13T02:19:40.638Z,80.91
2018-12-13T02:22:09.579Z,80.76
2018-12-13T02:24:38.463Z,80.09
2018-12-13T02:27:07.426Z,79.37
2018-12-13T02:29:36.332Z,80.67
2018-12-13T02:32:05.238Z,80.35
2018-12-13T02:34:34.149Z,80.44
2018-12-13T02:37:06.238Z,80.63
2018-12-13T02:39:31.955Z,80.71
2018-12-13T02:42:00.944Z,80.58
2018-12-13T02:44:29.796Z,80.28
2018-12-13T02:46:58.709Z,80.77
2018-12-13T02:49:27.626Z,80.89
2018-12-13T02:51:56.584Z,81.66
2018-12-13T02:54:25.464Z,80.61
2018-12-13T02:56:54.388Z,81.50
2018-12-13T02:59:23.315Z,81.25
2018-12-13T03:01:52.294Z,81.21
2018-12-13T03:04:21.150Z,81.47
2018-12-13T03:06:50.085Z,81.49
2018-12-13T03:09:19.008Z,81.35
2018-12-13T03:11:47.902Z,81.13
2018-12-13T03:14:16.786Z,81.08
2018-12-13T03:16:45.715Z,80.64
2018-12-13T03:19:14.589Z,80.86
2018-12-13T03:21:43.522Z,81.53
2018-12-13T03:24:12.432Z,82.30
2018-12-13T03:26:41.440Z,81.89
2018-12-13T03:29:10.267Z,82.33
2018-12-13T03:31:39.156Z,81.92
2018-12-13T03:34:08.086Z,81.86
2018-12-13T03:36:36.985Z,82.21
2018-12-13T03:39:07.792Z,82.47
2018-12-13T03:41:36.696Z,82.51
2018-12-13T03:44:05.607Z,82.24
2018-12-13T03:46:34.521Z,81.88
2018-12-13T03:49:03.457Z,82.42
2018-12-13T03:51:32.379Z,82.81
2018-12-13T03:54:01.311Z,82.41
2018-12-13T03:56:30.183Z,82.52
2018-12-13T03:58:59.112Z,82.66
2018-12-13T04:01:27.988Z,82.71
2018-12-13T04:03:56.920Z,82.23
2018-12-13T04:06:25.828Z,82.64
2018-12-13T04:08:54.763Z,81.72
2018-12-13T04:11:23.663Z,82.60
2018-12-13T04:13:52.576Z,82.74
2018-12-13T04:16:21.499Z,83.09
2018-12-13T04:18:50.443Z,82.98
2018-12-13T04:21:19.316Z,83.15
2018-12-13T04:23:48.256Z,83.00
2018-12-13T04:26:17.147Z,83.16
2018-12-13T04:28:46.077Z,83.29
2018-12-13T04:31:14.965Z,83.17
2018-12-13T04:33:43.902Z,83.19
2018-12-13T04:36:13.547Z,83.19
2018-12-13T04:38:41.742Z,83.03
2018-12-13T04:41:10.604Z,83.36
2018-12-13T04:43:39.522Z,83.46
2018-12-13T04:46:08.543Z,83.44
2018-12-13T04:48:37.459Z,83.32
2018-12-13T04:51:06.394Z,83.62
2018-12-13T04:53:35.409Z,83.80
2018-12-13T04:56:04.363Z,83.88
2018-12-13T04:58:33.257Z,83.76
2018-12-13T05:01:02.169Z,83.87
2018-12-13T05:03:31.037Z,83.85
2018-12-13T05:05:59.942Z,84.10
2018-12-13T05:08:28.847Z,83.92
2018-12-13T05:10:57.772Z,84.10
2018-12-13T05:13:26.677Z,83.90
2018-12-13T05:15:55.594Z,83.21
2018-12-13T05:18:24.482Z,84.02
2018-12-13T05:20:53.375Z,84.42
2018-12-13T05:23:22.284Z,83.84
2018-12-13T05:25:51.198Z,83.64
2018-12-13T05:28:20.098Z,83.39
2018-12-13T05:30:48.997Z,83.42
2018-12-13T05:33:17.880Z,83.33
2018-12-13T05:35:46.801Z,83.21
2018-12-13T05:38:15.699Z,83.25
2018-12-13T05:40:44.609Z,83.94
2018-12-13T05:43:13.519Z,83.93
2018-12-13T05:45:42.414Z,84.08
2018-12-13T05:48:11.350Z,83.79
2018-12-13T05:50:40.210Z,83.93
2018-12-13T05:53:09.096Z,83.82
2018-12-13T05:55:38.038Z,83.55
2018-12-13T05:58:06.957Z,83.31
2018-12-13T06:00:35.825Z,83.34
2018-12-13T06:03:04.776Z,83.47
2018-12-13T06:05:33.710Z,83.26
2018-12-13T06:08:02.625Z,83.59
2018-12-13T06:10:31.555Z,83.76
2018-12-13T06:13:00.470Z,83.66
2018-12-13T06:15:29.406Z,83.54
2018-12-13T06:17:58.285Z,83.72
2018-12-13T06:20:27.190Z,83.84
2018-12-13T06:22:56.167Z,83.87
2018-12-13T06:25:24.972Z,83.76
2018-12-13T06:27:53.884Z,84.02
2018-12-13T06:30:22.778Z,83.80
2018-12-13T06:32:51.665Z,83.98
2018-12-13T06:35:20.583Z,84.03
2018-12-13T06:37:49.484Z,83.76
2018-12-13T06:40:18.377Z,83.41
2018-12-13T06:42:47.321Z,83.75
2018-12-13T06:45:16.200Z,83.75
2018-12-13T06:47:45.101Z,83.90
2018-12-13T06:50:14.043Z,83.62
2018-12-13T06:52:42.904Z,83.03
2018-12-13T06:55:11.799Z,83.65
2018-12-13T06:57:40.723Z,83.47
2018-12-13T07:00:09.989Z,83.55
2018-12-13T07:02:38.934Z,83.51
2018-12-13T07:05:07.908Z,83.77
2018-12-13T07:07:36.845Z,83.41
2018-12-13T07:10:05.771Z,83.36
2018-12-13T07:12:34.680Z,83.45
2018-12-13T07:15:03.623Z,83.65
2018-12-13T07:17:32.557Z,83.52
2018-12-13T07:20:01.520Z,83.66
2018-12-13T07:22:30.433Z,83.06
2018-12-13T07:24:59.328Z,83.35
2018-12-13T07:27:28.239Z,83.35
2018-12-13T07:29:57.158Z,83.11
2018-12-13T07:32:26.053Z,83.28
2018-12-13T07:35:01.144Z,83.04
2018-12-13T07:37:23.858Z,83.25
2018-12-13T07:39:52.764Z,83.20
2018-12-13T07:42:21.829Z,83.12
2018-12-13T07:44:50.729Z,82.68
2018-12-13T07:47:19.656Z,83.39
2018-12-13T07:49:48.567Z,83.24
2018-12-13T07:52:25.376Z,81.89
2018-12-13T07:54:52.092Z,82.67
2018-12-13T07:57:21.630Z,82.59
2018-12-13T07:59:51.097Z,82.51
2018-12-13T08:02:20.709Z,81.98
2018-12-13T08:04:50.518Z,81.78
2018-12-13T08:07:22.881Z,81.30
2018-12-13T08:09:57.175Z,80.85
2018-12-13T08:12:24.701Z,80.71
2018-12-13T08:14:55.751Z,80.26
2018-12-13T08:17:26.745Z,79.56
2018-12-13T08:19:56.591Z,79.10
2018-12-13T08:22:26.235Z,79.21
2018-12-13T08:25:00.583Z,78.82
2018-12-13T08:27:30.081Z,78.77
2018-12-13T08:30:10.618Z,78.24
2018-12-13T08:32:39.962Z,77.41
2018-12-13T08:35:10.382Z,77.23
2018-12-13T08:37:40.264Z,77.64
2018-12-13T08:40:11.735Z,77.48
2018-12-13T08:42:41.284Z,76.93
2018-12-13T08:45:10.734Z,75.48
2018-12-13T08:47:43.680Z,73.26
2018-12-13T08:50:13.246Z,71.92
2018-12-13T08:52:42.702Z,70.42
2018-12-13T08:55:13.474Z,71.78
2018-12-13T08:57:42.883Z,71.24
2018-12-13T09:00:12.503Z,71.67
2018-12-13T09:02:45.892Z,71.57
2018-12-13T09:05:20.691Z,72.02
2018-12-13T09:07:50.032Z,71.88
2018-12-13T09:10:19.153Z,69.82
2018-12-13T09:12:51.076Z,68.74
2018-12-13T09:15:23.195Z,68.46
2018-12-13T09:17:55.207Z,69.12
2018-12-13T09:20:24.763Z,69.82
2018-12-13T09:22:56.813Z,67.95
2018-12-13T09:25:26.118Z,66.16
2018-12-13T09:27:55.995Z,65.83
2018-12-13T09:30:29.313Z,66.62
2018-12-13T09:32:59.803Z,66.90
2018-12-13T09:35:31.414Z,66.95
2018-12-13T09:38:02.447Z,65.88
2018-12-13T09:40:30.471Z,65.62
2018-12-13T09:43:04.409Z,64.12
2018-12-13T09:45:41.299Z,61.75
2018-12-13T09:48:16.522Z,61.54
2018-12-13T09:50:50.694Z,59.48
2018-12-13T09:53:22.769Z,57.80
2018-12-13T09:55:57.641Z,55.88
2018-12-13T09:58:27.433Z,53.58
2018-12-13T10:01:01.735Z,52.41
2018-12-13T10:03:41.001Z,52.79
2018-12-13T10:06:23.140Z,52.16
2018-12-13T10:08:54.833Z,50.25
2018-12-13T10:11:46.772Z,48.44
2018-12-13T10:14:16.239Z,45.57
2018-12-13T10:16:45.687Z,43.30
2018-12-13T10:19:17.837Z,42.24
2018-12-13T10:21:48.984Z,41.84
2018-12-13T10:24:20.732Z,40.15
2018-12-13T10:26:52.775Z,38.80
2018-12-13T10:29:29.887Z,38.80
2018-12-13T10:31:57.494Z,37.40
2018-12-13T10:34:26.973Z,38.98
2018-12-13T10:36:56.268Z,38.50
2018-12-13T10:39:28.122Z,37.74
2018-12-13T10:42:00.019Z,37.85
2018-12-13T10:44:38.573Z,37.21
2018-12-13T10:47:08.063Z,38.03
2018-12-13T10:49:38.168Z,36.39
2018-12-13T10:52:10.086Z,37.29
2018-12-13T10:54:45.655Z,40.97
2018-12-13T10:57:14.987Z,40.62
2018-12-13T10:59:47.349Z,42.95
2018-12-13T11:02:34.762Z,43.53
2018-12-13T11:05:06.099Z,45.69
2018-12-13T11:07:33.791Z,48.99
2018-12-13T11:10:10.358Z,52.64
2018-12-13T11:12:42.274Z,54.96
2018-12-13T11:15:19.250Z,54.91
2018-12-13T11:17:49.536Z,55.31
2018-12-13T11:20:18.590Z,56.33
2018-12-13T11:22:55.271Z,56.08
2018-12-13T11:25:27.478Z,57.34
2018-12-13T11:28:33.667Z,57.67
2018-12-13T11:31:03.080Z,59.01
2018-12-13T11:33:32.304Z,59.88
2018-12-13T11:36:04.642Z,59.59
2018-12-13T11:38:33.743Z,60.14
2018-12-13T11:41:06.023Z,60.87
2018-12-13T11:43:37.871Z,61.30
2018-12-13T11:46:10.085Z,61.24
2018-12-13T11:48:39.501Z,62.34
2018-12-13T11:51:09.286Z,62.75
2018-12-13T11:53:44.265Z,62.91
2018-12-13T11:56:14.472Z,63.38
2018-12-13T11:58:49.330Z,62.62
2018-12-13T12:01:27.159Z,62.67
2018-12-13T12:03:58.276Z,62.58
2018-12-13T12:06:32.757Z,63.69
2018-12-13T12:09:05.080Z,62.95
2018-12-13T12:11:37.077Z,63.55
2018-12-13T12:14:06.566Z,63.61
2018-12-13T12:16:38.349Z,63.08
2018-12-13T12:19:07.594Z,63.50
2018-12-13T12:21:36.778Z,63.21
2018-12-13T12:24:12.081Z,62.66
2018-12-13T12:26:44.708Z,62.96
2018-12-13T12:29:14.727Z,62.63
2018-12-13T12:31:45.551Z,63.25
2018-12-13T12:34:21.855Z,64.13
2018-12-13T12:36:54.682Z,64.97
2018-12-13T12:39:24.648Z,64.80
2018-12-13T12:41:52.166Z,64.90
2018-12-13T12:44:21.955Z,65.09
2018-12-13T12:46:54.040Z,65.26
2018-12-13T12:49:27.156Z,66.04
2018-12-13T12:52:04.926Z,65.99
2018-12-13T12:54:40.157Z,67.06
2018-12-13T12:57:07.646Z,65.61
2018-12-13T12:59:40.465Z,65.30
2018-12-13T13:02:13.250Z,65.86
2018-12-13T13:04:43.583Z,66.11
2018-12-13T13:07:24.105Z,65.31
2018-12-13T13:09:57.694Z,65.80
2018-12-13T13:12:28.772Z,65.46
2018-12-13T13:14:58.626Z,64.92
2018-12-13T13:17:28.568Z,64.91
2018-12-13T13:19:57.869Z,64.92
2018-12-13T13:22:27.928Z,65.55
2018-12-13T13:25:03.288Z,66.13
2018-12-13T13:27:32.802Z,65.73
2018-12-13T13:30:09.095Z,65.64
2018-12-13T13:32:39.196Z,65.03
2018-12-13T13:35:12.429Z,65.94
2018-12-13T13:37:48.559Z,66.54
2018-12-13T13:40:18.512Z,66.20
2018-12-13T13:42:49.747Z,66.70
2018-12-13T13:45:19.065Z,66.50
2018-12-13T13:47:48.535Z,67.05
2018-12-13T13:50:20.510Z,67.71
2018-12-13T13:52:50.009Z,67.59
2018-12-13T13:55:19.260Z,68.15
2018-12-13T13:57:49.024Z,67.72
2018-12-13T14:00:18.223Z,67.92
2018-12-13T14:02:47.399Z,67.94
2018-12-13T14:05:22.244Z,68.13
2018-12-13T14:07:54.212Z,68.65
2018-12-13T14:10:26.085Z,68.78
2018-12-13T14:12:55.981Z,69.03
2018-12-13T14:15:30.941Z,68.57
2018-12-13T14:18:00.519Z,68.96
2018-12-13T14:20:33.027Z,69.19
2018-12-13T14:23:02.348Z,68.78
2018-12-13T14:25:31.589Z,68.73
2018-12-13T14:28:06.827Z,68.85
2018-12-13T14:30:38.777Z,69.24
2018-12-13T14:33:14.119Z,68.91
2018-12-13T14:35:43.660Z,68.65
2018-12-13T14:38:13.402Z,68.58
2018-12-13T14:40:42.811Z,68.49
2018-12-13T14:43:15.594Z,68.72
2018-12-13T14:45:45.338Z,68.59
2018-12-13T14:48:14.875Z,68.87
2018-12-13T14:50:45.329Z,69.06
2018-12-13T14:53:19.303Z,69.27
2018-12-13T14:55:48.714Z,69.38
2018-12-13T14:58:18.157Z,69.80
2018-12-13T15:00:47.360Z,69.92
2018-12-13T15:03:22.524Z,69.72
2018-12-13T15:05:52.816Z,69.77
2018-12-13T15:08:22.322Z,70.05
2018-12-13T15:10:51.866Z,70.01
2018-12-13T15:13:21.395Z,69.60
2018-12-13T15:15:50.761Z,70.25
2018-12-13T15:18:20.254Z,70.38
2018-12-13T15:20:49.521Z,70.27
2018-12-13T15:23:18.947Z,70.65
2018-12-13T15:25:51.004Z,70.80
2018-12-13T15:28:25.148Z,70.75
2018-12-13T15:31:07.490Z,70.91
2018-12-13T15:33:39.102Z,71.50
2018-12-13T15:36:10.870Z,71.92
2018-12-13T15:38:43.175Z,71.74
2018-12-13T15:41:15.001Z,71.94
2018-12-13T15:43:50.295Z,72.05
2018-12-13T15:46:19.985Z,71.84
2018-12-13T15:48:49.274Z,72.78
2018-12-13T15:51:18.894Z,73.61
2018-12-13T15:53:48.413Z,73.30
2018-12-13T15:56:17.984Z,73.37
2018-12-13T15:58:47.346Z,73.40
2018-12-13T16:01:17.668Z,73.76
2018-12-13T16:03:47.254Z,74.19
2018-12-13T16:06:16.674Z,74.18
2018-12-13T16:08:48.663Z,74.30
2018-12-13T16:11:17.989Z,74.71
2018-12-13T16:13:47.340Z,74.51
2018-12-13T16:16:19.950Z,74.62
2018-12-13T16:18:49.254Z,74.66
2018-12-13T16:21:22.763Z,75.54
2018-12-13T16:23:52.329Z,75.41
2018-12-13T16:26:22.574Z,75.43
2018-12-13T16:28:57.087Z,75.54
2018-12-13T16:31:39.444Z,75.19
2018-12-13T16:34:11.778Z,75.13
2018-12-13T16:36:41.311Z,75.32
2018-12-13T16:39:13.593Z,75.62
2018-12-13T16:41:45.885Z,75.18
2018-12-13T16:44:17.905Z,74.81
2018-12-13T16:46:47.380Z,75.44
2018-12-13T16:49:16.952Z,75.03
2018-12-13T16:51:46.152Z,74.99
2018-12-13T16:54:17.798Z,75.18
2018-12-13T16:56:47.050Z,75.09
2018-12-13T16:59:16.734Z,75.19
2018-12-13T17:01:46.096Z,75.08
2018-12-13T17:04:24.395Z,75.02
2018-12-13T17:06:54.041Z,75.31
2018-12-13T17:09:23.670Z,75.57
2018-12-13T17:11:53.486Z,75.36
2018-12-13T17:14:25.992Z,75.10
2018-12-13T17:16:57.871Z,75.71
2018-12-13T17:19:29.965Z,75.79
2018-12-13T17:22:01.090Z,75.91
2018-12-13T17:24:29.088Z,75.85
2018-12-13T17:26:59.747Z,75.92
2018-12-13T17:29:29.448Z,75.88
2018-12-13T17:32:03.067Z,75.57
2018-12-13T17:34:31.976Z,75.67
2018-12-13T17:37:00.889Z,75.86
2018-12-13T17:39:29.899Z,75.49
2018-12-13T17:41:58.839Z,75.85
2018-12-13T17:44:27.702Z,75.83
2018-12-13T17:46:56.605Z,76.24
2018-12-13T17:49:25.493Z,76.52
2018-12-13T17:51:54.405Z,76.12
2018-12-13T17:54:23.331Z,76.03
2018-12-13T17:56:52.251Z,76.17
2018-12-13T17:59:21.132Z,76.13
2018-12-13T18:01:50.014Z,76.37
2018-12-13T18:04:18.946Z,76.15
2018-12-13T18:06:47.838Z,76.42
2018-12-13T18:09:16.734Z,76.40
2018-12-13T18:11:45.612Z,76.37
2018-12-13T18:14:14.543Z,76.27
2018-12-13T18:16:43.716Z,75.62
2018-12-13T18:19:12.324Z,76.24
2018-12-13T18:21:41.215Z,76.05
2018-12-13T18:24:10.133Z,76.14
2018-12-13T18:26:39.034Z,76.23
2018-12-13T18:29:07.966Z,76.16
2018-12-13T18:31:36.911Z,76.25
2018-12-13T18:34:05.803Z,76.58
2018-12-13T18:36:34.734Z,76.01
2018-12-13T18:39:05.041Z,75.07
2018-12-13T18:41:33.968Z,76.12
2018-12-13T18:44:02.861Z,75.96
2018-12-13T18:46:31.791Z,75.74
2018-12-13T18:49:00.705Z,75.47
2018-12-13T18:51:29.630Z,76.04
2018-12-13T18:53:58.508Z,75.69
2018-12-13T18:56:27.405Z,76.03
2018-12-13T18:58:56.337Z,75.94
2018-12-13T19:01:25.248Z,75.96
2018-12-13T19:03:54.166Z,75.73
2018-12-13T19:06:23.131Z,76.04
2018-12-13T19:08:51.977Z,75.53
2018-12-13T19:11:20.883Z,75.57
2018-12-13T19:13:49.829Z,75.76
2018-12-13T19:16:18.665Z,75.83
2018-12-13T19:18:47.543Z,75.81
2018-12-13T19:21:16.470Z,75.72
2018-12-13T19:23:45.384Z,76.14
2018-12-13T19:26:14.263Z,75.54
2018-12-13T19:28:43.187Z,76.00
2018-12-13T19:31:12.211Z,74.24
2018-12-13T19:33:41.082Z,75.77
2018-12-13T19:36:09.982Z,75.72
2018-12-13T19:38:38.886Z,75.45
2018-12-13T19:41:07.817Z,75.56
2018-12-13T19:43:36.745Z,75.63
2018-12-13T19:46:05.680Z,74.16
2018-12-13T19:48:34.588Z,74.73
2018-12-13T19:51:03.520Z,74.99
2018-12-13T19:53:32.449Z,74.87
2018-12-13T19:56:01.340Z,74.42
2018-12-13T19:58:30.264Z,74.79
2018-12-13T20:00:59.160Z,74.72
2018-12-13T20:03:28.088Z,75.08
2018-12-13T20:05:57.004Z,74.38
2018-12-13T20:08:25.867Z,75.32
2018-12-13T20:10:54.915Z,75.11
2018-12-13T20:13:23.669Z,74.95
2018-12-13T20:15:52.542Z,75.47
2018-12-13T20:18:21.470Z,75.74
2018-12-13T20:20:50.365Z,75.67
2018-12-13T20:23:19.232Z,75.25
2018-12-13T20:25:48.154Z,75.00
2018-12-13T20:28:17.092Z,75.21
2018-12-13T20:30:45.975Z,75.18
2018-12-13T20:33:14.899Z,75.48
2018-12-13T20:35:43.815Z,75.12
2018-12-13T20:38:12.721Z,75.46
2018-12-13T20:40:41.628Z,74.79
2018-12-13T20:43:10.502Z,75.33
2018-12-13T20:45:39.407Z,75.69
2018-12-13T20:48:08.400Z,74.51
2018-12-13T20:50:37.264Z,75.37
2018-12-13T20:53:06.194Z,75.53
2018-12-13T20:55:35.091Z,74.41
2018-12-13T20:58:04.022Z,75.32
2018-12-13T21:00:32.922Z,75.43
2018-12-13T21:03:01.851Z,75.46
2018-12-13T21:05:30.750Z,75.00
2018-12-13T21:08:09.038Z,75.19
2018-12-13T21:10:39.162Z,75.33
2018-12-13T21:13:08.070Z,75.31
2018-12-13T21:15:36.979Z,75.55
2018-12-13T21:18:05.952Z,76.17
2018-12-13T21:20:34.841Z,75.94
2018-12-13T21:23:03.756Z,75.97
2018-12-13T21:25:32.640Z,75.81
2018-12-13T21:28:01.553Z,75.66
2018-12-13T21:30:30.458Z,76.23
2018-12-13T21:33:00.582Z,76.46
2018-12-13T21:35:28.315Z,76.66
2018-12-13T21:37:57.194Z,76.91
2018-12-13T21:40:26.141Z,76.81
2018-12-13T21:42:55.011Z,77.21
2018-12-13T21:45:23.889Z,77.30
2018-12-13T21:47:53.674Z,77.38
2018-12-13T21:50:21.690Z,76.78
2018-12-13T21:52:50.592Z,76.66
2018-12-13T21:57:57.504Z,76.57
2018-12-13T22:00:26.352Z,77.06
2018-12-13T22:02:55.344Z,76.84
2018-12-13T22:05:24.236Z,76.75
2018-12-13T22:07:53.152Z,77.21
2018-12-13T22:10:22.079Z,77.22
2018-12-13T22:12:50.982Z,76.37
2018-12-13T22:15:19.863Z,77.18
2018-12-13T22:17:50.852Z,77.01
2018-12-13T22:20:19.758Z,77.19
2018-12-13T22:22:48.666Z,77.22
2018-12-13T22:25:17.613Z,77.30
2018-12-13T22:27:48.040Z,76.25
2018-12-13T22:30:16.875Z,75.12
2018-12-13T22:32:45.794Z,76.47
2018-12-13T22:35:14.681Z,76.54
2018-12-13T22:37:43.578Z,76.64
2018-12-13T22:40:12.487Z,76.76
2018-12-13T22:42:41.360Z,76.81
2018-12-13T22:45:10.303Z,76.57
2018-12-13T22:47:39.200Z,76.96
2018-12-13T22:50:08.148Z,77.11
2018-12-13T22:52:37.040Z,76.59
2018-12-13T22:55:06.011Z,77.25
2018-12-13T22:57:34.886Z,77.33
2018-12-13T23:00:03.827Z,76.97
2018-12-13T23:02:32.779Z,76.77
2018-12-13T23:05:01.667Z,76.99
2018-12-13T23:07:30.577Z,77.11
2018-12-13T23:09:59.467Z,77.67
2018-12-13T23:12:28.424Z,77.47
2018-12-13T23:14:57.342Z,77.97
2018-12-13T23:17:26.243Z,77.65
2018-12-13T23:19:55.140Z,77.45
2018-12-13T23:22:24.033Z,77.96
2018-12-13T23:24:52.953Z,77.98
2018-12-13T23:27:21.856Z,78.18
2018-12-13T23:29:50.751Z,78.11
2018-12-13T23:32:19.642Z,78.34
2018-12-13T23:34:48.543Z,78.45
2018-12-13T23:37:17.423Z,78.43
2018-12-13T23:39:46.355Z,78.14
2018-12-13T23:42:15.271Z,78.07
2018-12-13T23:44:44.197Z,78.05
2018-12-13T23:47:13.112Z,77.86
2018-12-13T23:49:42.003Z,76.67
2018-12-13T23:52:10.907Z,77.65
2018-12-13T23:54:39.797Z,77.94
2018-12-13T23:57:08.727Z,77.68
2018-12-13T23:59:37.589Z,77.99
